sensor_id;sensor_type;location;lat;lon;timestamp;P1;durP1;ratioP1;P2;durP2;ratioP2
76566;SDS011;65428;53.194;6.132;2023-03-20T00:01:13;8.65;;;6.00;;
76566;SDS011;65428;53.194;6.132;2023-03-20T00:03:41;12.68;;;6.78;;
76566;SDS011;65428;53.194;6.132;2023-03-20T00:06:12;9.60;;;6.80;;
76566;SDS011;65428;53.194;6.132;2023-03-20T00:08:40;11.60;;;6.93;;
76566;SDS011;65428;53.194;6.132;2023-03-20T00:11:52;11.48;;;6.25;;
76566;SDS011;65428;53.194;6.132;2023-03-20T00:14:09;11.57;;;7.25;;
76566;SDS011;65428;53.194;6.132;2023-03-20T00:16:38;10.40;;;6.90;;
76566;SDS011;65428;53.194;6.132;2023-03-20T00:19:17;9.35;;;6.60;;
76566;SDS011;65428;53.194;6.132;2023-03-20T00:21:44;9.23;;;5.93;;
76566;SDS011;65428;53.194;6.132;2023-03-20T00:24:11;11.20;;;6.10;;
76566;SDS011;65428;53.194;6.132;2023-03-20T00:26:38;13.30;;;6.10;;
76566;SDS011;65428;53.194;6.132;2023-03-20T00:29:04;8.18;;;6.05;;
76566;SDS011;65428;53.194;6.132;2023-03-20T00:31:35;11.85;;;6.07;;
76566;SDS011;65428;53.194;6.132;2023-03-20T00:34:03;10.27;;;6.40;;
76566;SDS011;65428;53.194;6.132;2023-03-20T00:36:30;10.68;;;6.05;;
76566;SDS011;65428;53.194;6.132;2023-03-20T00:38:56;10.10;;;6.10;;
76566;SDS011;65428;53.194;6.132;2023-03-20T00:41:32;8.60;;;6.10;;
76566;SDS011;65428;53.194;6.132;2023-03-20T00:46:37;10.87;;;6.73;;
76566;SDS011;65428;53.194;6.132;2023-03-20T00:49:03;11.27;;;6.07;;
76566;SDS011;65428;53.194;6.132;2023-03-20T00:51:29;11.80;;;6.65;;
76566;SDS011;65428;53.194;6.132;2023-03-20T00:53:55;10.25;;;6.20;;
76566;SDS011;65428;53.194;6.132;2023-03-20T00:56:43;11.27;;;6.30;;
76566;SDS011;65428;53.194;6.132;2023-03-20T00:59:13;10.83;;;6.33;;
76566;SDS011;65428;53.194;6.132;2023-03-20T01:01:43;11.20;;;6.68;;
76566;SDS011;65428;53.194;6.132;2023-03-20T01:04:13;10.25;;;6.00;;
76566;SDS011;65428;53.194;6.132;2023-03-20T01:06:40;12.90;;;6.75;;
76566;SDS011;65428;53.194;6.132;2023-03-20T01:09:06;13.82;;;7.57;;
76566;SDS011;65428;53.194;6.132;2023-03-20T01:11:32;12.20;;;8.00;;
76566;SDS011;65428;53.194;6.132;2023-03-20T01:13:58;14.27;;;8.15;;
76566;SDS011;65428;53.194;6.132;2023-03-20T01:16:25;12.77;;;7.53;;
76566;SDS011;65428;53.194;6.132;2023-03-20T01:18:51;17.23;;;8.17;;
76566;SDS011;65428;53.194;6.132;2023-03-20T01:21:17;14.95;;;7.57;;
76566;SDS011;65428;53.194;6.132;2023-03-20T01:23:44;16.58;;;7.85;;
76566;SDS011;65428;53.194;6.132;2023-03-20T01:26:17;14.20;;;7.95;;
76566;SDS011;65428;53.194;6.132;2023-03-20T01:28:47;13.95;;;7.60;;
76566;SDS011;65428;53.194;6.132;2023-03-20T01:31:15;17.80;;;8.30;;
76566;SDS011;65428;53.194;6.132;2023-03-20T01:33:41;15.38;;;7.80;;
76566;SDS011;65428;53.194;6.132;2023-03-20T01:36:11;15.77;;;8.07;;
76566;SDS011;65428;53.194;6.132;2023-03-20T01:38:38;15.77;;;7.87;;
76566;SDS011;65428;53.194;6.132;2023-03-20T01:41:05;16.52;;;8.50;;
76566;SDS011;65428;53.194;6.132;2023-03-20T01:43:39;17.85;;;7.97;;
76566;SDS011;65428;53.194;6.132;2023-03-20T01:51:29;17.27;;;8.32;;
76566;SDS011;65428;53.194;6.132;2023-03-20T01:54:05;22.10;;;8.63;;
76566;SDS011;65428;53.194;6.132;2023-03-20T01:56:46;17.65;;;9.15;;
76566;SDS011;65428;53.194;6.132;2023-03-20T02:00:00;15.65;;;8.18;;
76566;SDS011;65428;53.194;6.132;2023-03-20T02:02:09;19.83;;;8.75;;
76566;SDS011;65428;53.194;6.132;2023-03-20T02:04:40;18.63;;;8.48;;
76566;SDS011;65428;53.194;6.132;2023-03-20T02:07:08;17.77;;;8.00;;
76566;SDS011;65428;53.194;6.132;2023-03-20T02:09:37;16.70;;;8.10;;
76566;SDS011;65428;53.194;6.132;2023-03-20T02:12:03;18.25;;;8.23;;
76566;SDS011;65428;53.194;6.132;2023-03-20T02:14:29;16.70;;;8.63;;
76566;SDS011;65428;53.194;6.132;2023-03-20T02:16:56;19.85;;;8.85;;
76566;SDS011;65428;53.194;6.132;2023-03-20T02:19:29;19.70;;;9.15;;
76566;SDS011;65428;53.194;6.132;2023-03-20T02:25:24;19.08;;;9.63;;
76566;SDS011;65428;53.194;6.132;2023-03-20T02:31:30;15.55;;;8.40;;
76566;SDS011;65428;53.194;6.132;2023-03-20T02:37:20;16.73;;;8.85;;
76566;SDS011;65428;53.194;6.132;2023-03-20T02:43:06;18.42;;;8.60;;
76566;SDS011;65428;53.194;6.132;2023-03-20T02:45:37;16.90;;;8.95;;
76566;SDS011;65428;53.194;6.132;2023-03-20T02:48:26;16.92;;;8.82;;
76566;SDS011;65428;53.194;6.132;2023-03-20T02:54:23;15.68;;;8.18;;
76566;SDS011;65428;53.194;6.132;2023-03-20T02:59:56;18.55;;;9.32;;
76566;SDS011;65428;53.194;6.132;2023-03-20T03:02:30;17.05;;;9.10;;
76566;SDS011;65428;53.194;6.132;2023-03-20T03:05:06;19.17;;;10.05;;
76566;SDS011;65428;53.194;6.132;2023-03-20T03:07:43;17.67;;;10.48;;
76566;SDS011;65428;53.194;6.132;2023-03-20T03:10:19;19.00;;;10.40;;
76566;SDS011;65428;53.194;6.132;2023-03-20T03:12:51;17.55;;;10.25;;
76566;SDS011;65428;53.194;6.132;2023-03-20T03:15:37;16.27;;;9.75;;
76566;SDS011;65428;53.194;6.132;2023-03-20T03:18:07;17.17;;;10.05;;
76566;SDS011;65428;53.194;6.132;2023-03-20T03:20:38;16.65;;;10.25;;
76566;SDS011;65428;53.194;6.132;2023-03-20T03:23:04;17.33;;;9.98;;
76566;SDS011;65428;53.194;6.132;2023-03-20T03:25:31;17.33;;;10.07;;
76566;SDS011;65428;53.194;6.132;2023-03-20T03:30:32;15.88;;;9.70;;
76566;SDS011;65428;53.194;6.132;2023-03-20T03:35:35;13.77;;;8.93;;
76566;SDS011;65428;53.194;6.132;2023-03-20T03:38:19;12.82;;;8.70;;
76566;SDS011;65428;53.194;6.132;2023-03-20T03:44:10;12.68;;;8.63;;
76566;SDS011;65428;53.194;6.132;2023-03-20T03:46:56;12.05;;;8.02;;
76566;SDS011;65428;53.194;6.132;2023-03-20T03:49:40;12.10;;;8.25;;
76566;SDS011;65428;53.194;6.132;2023-03-20T03:52:12;12.27;;;7.38;;
76566;SDS011;65428;53.194;6.132;2023-03-20T03:54:43;11.93;;;7.68;;
76566;SDS011;65428;53.194;6.132;2023-03-20T03:57:12;14.32;;;7.35;;
76566;SDS011;65428;53.194;6.132;2023-03-20T03:59:45;12.00;;;7.10;;
76566;SDS011;65428;53.194;6.132;2023-03-20T04:02:14;12.97;;;8.03;;
76566;SDS011;65428;53.194;6.132;2023-03-20T04:04:44;13.23;;;8.43;;
76566;SDS011;65428;53.194;6.132;2023-03-20T04:07:14;11.07;;;8.07;;
76566;SDS011;65428;53.194;6.132;2023-03-20T04:09:40;13.55;;;8.00;;
76566;SDS011;65428;53.194;6.132;2023-03-20T04:12:08;14.50;;;8.45;;
76566;SDS011;65428;53.194;6.132;2023-03-20T04:14:54;14.43;;;9.17;;
76566;SDS011;65428;53.194;6.132;2023-03-20T04:17:20;15.77;;;9.63;;
76566;SDS011;65428;53.194;6.132;2023-03-20T04:19:46;15.73;;;9.88;;
76566;SDS011;65428;53.194;6.132;2023-03-20T04:22:11;16.93;;;10.93;;
76566;SDS011;65428;53.194;6.132;2023-03-20T04:24:37;17.10;;;11.38;;
76566;SDS011;65428;53.194;6.132;2023-03-20T04:27:02;18.65;;;11.60;;
76566;SDS011;65428;53.194;6.132;2023-03-20T04:29:28;21.20;;;12.03;;
76566;SDS011;65428;53.194;6.132;2023-03-20T04:31:54;18.63;;;13.03;;
76566;SDS011;65428;53.194;6.132;2023-03-20T04:34:21;18.15;;;12.15;;
76566;SDS011;65428;53.194;6.132;2023-03-20T04:36:47;19.83;;;12.57;;
76566;SDS011;65428;53.194;6.132;2023-03-20T04:39:13;18.13;;;13.20;;
76566;SDS011;65428;53.194;6.132;2023-03-20T04:41:38;20.70;;;12.68;;
76566;SDS011;65428;53.194;6.132;2023-03-20T04:44:05;18.48;;;12.77;;
76566;SDS011;65428;53.194;6.132;2023-03-20T04:46:30;17.63;;;10.55;;
76566;SDS011;65428;53.194;6.132;2023-03-20T04:48:56;18.20;;;10.93;;
76566;SDS011;65428;53.194;6.132;2023-03-20T04:51:21;17.63;;;11.07;;
76566;SDS011;65428;53.194;6.132;2023-03-20T04:53:47;18.23;;;11.80;;
76566;SDS011;65428;53.194;6.132;2023-03-20T04:56:13;18.17;;;12.05;;
76566;SDS011;65428;53.194;6.132;2023-03-20T04:58:38;18.57;;;12.03;;
76566;SDS011;65428;53.194;6.132;2023-03-20T05:01:04;20.07;;;12.90;;
76566;SDS011;65428;53.194;6.132;2023-03-20T05:03:30;21.40;;;13.20;;
76566;SDS011;65428;53.194;6.132;2023-03-20T05:05:56;20.10;;;12.20;;
76566;SDS011;65428;53.194;6.132;2023-03-20T05:08:21;19.38;;;12.88;;
76566;SDS011;65428;53.194;6.132;2023-03-20T05:10:47;18.87;;;12.70;;
76566;SDS011;65428;53.194;6.132;2023-03-20T05:13:12;19.83;;;12.70;;
76566;SDS011;65428;53.194;6.132;2023-03-20T05:15:38;21.52;;;12.80;;
76566;SDS011;65428;53.194;6.132;2023-03-20T05:18:04;20.20;;;12.57;;
76566;SDS011;65428;53.194;6.132;2023-03-20T05:20:29;20.30;;;12.87;;
76566;SDS011;65428;53.194;6.132;2023-03-20T05:22:55;21.67;;;13.18;;
76566;SDS011;65428;53.194;6.132;2023-03-20T05:25:20;22.47;;;13.93;;
76566;SDS011;65428;53.194;6.132;2023-03-20T05:27:46;20.27;;;13.90;;
76566;SDS011;65428;53.194;6.132;2023-03-20T05:30:12;21.80;;;14.18;;
76566;SDS011;65428;53.194;6.132;2023-03-20T05:32:39;20.77;;;14.10;;
76566;SDS011;65428;53.194;6.132;2023-03-20T05:35:06;21.10;;;13.88;;
76566;SDS011;65428;53.194;6.132;2023-03-20T05:37:33;18.88;;;12.98;;
76566;SDS011;65428;53.194;6.132;2023-03-20T05:39:58;22.10;;;13.70;;
76566;SDS011;65428;53.194;6.132;2023-03-20T05:42:24;20.13;;;12.90;;
76566;SDS011;65428;53.194;6.132;2023-03-20T05:44:50;20.65;;;13.80;;
76566;SDS011;65428;53.194;6.132;2023-03-20T05:47:15;21.47;;;13.97;;
76566;SDS011;65428;53.194;6.132;2023-03-20T05:49:41;20.10;;;14.02;;
76566;SDS011;65428;53.194;6.132;2023-03-20T05:52:07;20.67;;;14.32;;
76566;SDS011;65428;53.194;6.132;2023-03-20T05:54:32;20.37;;;14.47;;
76566;SDS011;65428;53.194;6.132;2023-03-20T05:56:58;20.48;;;14.32;;
76566;SDS011;65428;53.194;6.132;2023-03-20T05:59:24;20.98;;;14.00;;
76566;SDS011;65428;53.194;6.132;2023-03-20T06:01:49;21.63;;;14.57;;
76566;SDS011;65428;53.194;6.132;2023-03-20T06:04:15;21.55;;;14.38;;
76566;SDS011;65428;53.194;6.132;2023-03-20T06:06:41;21.35;;;13.65;;
76566;SDS011;65428;53.194;6.132;2023-03-20T06:09:06;22.35;;;14.45;;
76566;SDS011;65428;53.194;6.132;2023-03-20T06:11:32;21.07;;;13.93;;
76566;SDS011;65428;53.194;6.132;2023-03-20T06:13:58;21.85;;;14.07;;
76566;SDS011;65428;53.194;6.132;2023-03-20T06:16:23;21.15;;;14.48;;
76566;SDS011;65428;53.194;6.132;2023-03-20T06:18:50;21.38;;;14.38;;
76566;SDS011;65428;53.194;6.132;2023-03-20T06:21:16;22.60;;;14.35;;
76566;SDS011;65428;53.194;6.132;2023-03-20T06:23:42;20.67;;;13.97;;
76566;SDS011;65428;53.194;6.132;2023-03-20T06:26:07;18.53;;;14.07;;
76566;SDS011;65428;53.194;6.132;2023-03-20T06:28:33;21.15;;;14.98;;
76566;SDS011;65428;53.194;6.132;2023-03-20T06:30:59;21.70;;;14.80;;
76566;SDS011;65428;53.194;6.132;2023-03-20T06:33:25;22.33;;;14.32;;
76566;SDS011;65428;53.194;6.132;2023-03-20T06:35:51;22.00;;;15.20;;
76566;SDS011;65428;53.194;6.132;2023-03-20T06:38:16;20.80;;;14.80;;
76566;SDS011;65428;53.194;6.132;2023-03-20T06:40:42;20.47;;;14.67;;
76566;SDS011;65428;53.194;6.132;2023-03-20T06:43:09;20.90;;;14.57;;
76566;SDS011;65428;53.194;6.132;2023-03-20T06:45:36;23.40;;;15.30;;
76566;SDS011;65428;53.194;6.132;2023-03-20T06:48:06;22.02;;;15.18;;
76566;SDS011;65428;53.194;6.132;2023-03-20T06:50:32;22.35;;;15.60;;
76566;SDS011;65428;53.194;6.132;2023-03-20T06:52:58;22.13;;;15.50;;
76566;SDS011;65428;53.194;6.132;2023-03-20T06:55:24;23.23;;;15.68;;
76566;SDS011;65428;53.194;6.132;2023-03-20T06:57:50;23.33;;;15.27;;
76566;SDS011;65428;53.194;6.132;2023-03-20T07:00:15;23.83;;;16.23;;
76566;SDS011;65428;53.194;6.132;2023-03-20T07:02:41;23.70;;;15.70;;
76566;SDS011;65428;53.194;6.132;2023-03-20T07:05:07;24.63;;;16.33;;
76566;SDS011;65428;53.194;6.132;2023-03-20T07:07:34;25.10;;;16.63;;
76566;SDS011;65428;53.194;6.132;2023-03-20T07:10:00;23.73;;;16.60;;
76566;SDS011;65428;53.194;6.132;2023-03-20T07:12:26;25.73;;;16.40;;
76566;SDS011;65428;53.194;6.132;2023-03-20T07:14:53;24.15;;;16.02;;
76566;SDS011;65428;53.194;6.132;2023-03-20T07:17:20;25.45;;;16.27;;
76566;SDS011;65428;53.194;6.132;2023-03-20T07:19:47;24.42;;;15.68;;
76566;SDS011;65428;53.194;6.132;2023-03-20T07:22:18;25.17;;;15.30;;
76566;SDS011;65428;53.194;6.132;2023-03-20T07:24:46;23.83;;;15.93;;
76566;SDS011;65428;53.194;6.132;2023-03-20T07:27:12;20.05;;;15.60;;
76566;SDS011;65428;53.194;6.132;2023-03-20T07:29:38;23.17;;;16.00;;
76566;SDS011;65428;53.194;6.132;2023-03-20T07:32:03;22.23;;;16.47;;
76566;SDS011;65428;53.194;6.132;2023-03-20T07:34:29;26.20;;;18.17;;
76566;SDS011;65428;53.194;6.132;2023-03-20T07:36:55;26.05;;;18.05;;
76566;SDS011;65428;53.194;6.132;2023-03-20T07:39:21;26.55;;;17.85;;
76566;SDS011;65428;53.194;6.132;2023-03-20T07:41:47;25.63;;;18.00;;
76566;SDS011;65428;53.194;6.132;2023-03-20T07:44:12;27.92;;;19.38;;
76566;SDS011;65428;53.194;6.132;2023-03-20T07:46:38;25.53;;;18.23;;
76566;SDS011;65428;53.194;6.132;2023-03-20T07:49:05;26.38;;;18.73;;
76566;SDS011;65428;53.194;6.132;2023-03-20T07:51:32;26.40;;;18.42;;
76566;SDS011;65428;53.194;6.132;2023-03-20T07:53:57;26.00;;;17.90;;
76566;SDS011;65428;53.194;6.132;2023-03-20T07:56:23;25.85;;;17.45;;
76566;SDS011;65428;53.194;6.132;2023-03-20T07:58:49;26.57;;;18.37;;
76566;SDS011;65428;53.194;6.132;2023-03-20T08:01:15;25.77;;;17.50;;
76566;SDS011;65428;53.194;6.132;2023-03-20T08:03:40;25.33;;;17.30;;
76566;SDS011;65428;53.194;6.132;2023-03-20T08:06:06;23.67;;;16.80;;
76566;SDS011;65428;53.194;6.132;2023-03-20T08:08:33;24.27;;;16.15;;
76566;SDS011;65428;53.194;6.132;2023-03-20T08:10:59;23.80;;;16.95;;
76566;SDS011;65428;53.194;6.132;2023-03-20T08:13:25;22.47;;;15.67;;
76566;SDS011;65428;53.194;6.132;2023-03-20T08:15:51;24.50;;;16.83;;
76566;SDS011;65428;53.194;6.132;2023-03-20T08:18:17;24.13;;;16.63;;
76566;SDS011;65428;53.194;6.132;2023-03-20T08:20:44;23.88;;;16.40;;
76566;SDS011;65428;53.194;6.132;2023-03-20T08:23:10;23.13;;;17.25;;
76566;SDS011;65428;53.194;6.132;2023-03-20T08:25:36;24.20;;;15.80;;
76566;SDS011;65428;53.194;6.132;2023-03-20T08:28:02;21.85;;;15.23;;
76566;SDS011;65428;53.194;6.132;2023-03-20T08:30:28;21.60;;;15.73;;
76566;SDS011;65428;53.194;6.132;2023-03-20T08:32:54;24.20;;;16.02;;
76566;SDS011;65428;53.194;6.132;2023-03-20T08:35:22;23.95;;;15.93;;
76566;SDS011;65428;53.194;6.132;2023-03-20T08:37:48;20.13;;;14.73;;
76566;SDS011;65428;53.194;6.132;2023-03-20T08:40:13;20.23;;;14.77;;
76566;SDS011;65428;53.194;6.132;2023-03-20T08:42:39;20.67;;;13.70;;
76566;SDS011;65428;53.194;6.132;2023-03-20T08:45:05;16.95;;;12.98;;
76566;SDS011;65428;53.194;6.132;2023-03-20T08:47:31;19.17;;;14.25;;
76566;SDS011;65428;53.194;6.132;2023-03-20T08:49:57;19.90;;;14.40;;
76566;SDS011;65428;53.194;6.132;2023-03-20T08:52:22;19.98;;;13.52;;
76566;SDS011;65428;53.194;6.132;2023-03-20T08:54:48;19.27;;;13.05;;
76566;SDS011;65428;53.194;6.132;2023-03-20T08:57:14;16.90;;;12.33;;
76566;SDS011;65428;53.194;6.132;2023-03-20T08:59:40;17.60;;;12.33;;
76566;SDS011;65428;53.194;6.132;2023-03-20T09:02:06;19.42;;;12.80;;
76566;SDS011;65428;53.194;6.132;2023-03-20T09:04:33;16.93;;;12.17;;
76566;SDS011;65428;53.194;6.132;2023-03-20T09:06:59;19.57;;;12.70;;
76566;SDS011;65428;53.194;6.132;2023-03-20T09:09:25;16.67;;;12.30;;
76566;SDS011;65428;53.194;6.132;2023-03-20T09:11:53;19.10;;;12.37;;
76566;SDS011;65428;53.194;6.132;2023-03-20T09:14:21;18.77;;;12.20;;
76566;SDS011;65428;53.194;6.132;2023-03-20T09:16:47;16.73;;;11.07;;
76566;SDS011;65428;53.194;6.132;2023-03-20T09:19:13;17.37;;;12.47;;
76566;SDS011;65428;53.194;6.132;2023-03-20T09:21:39;17.50;;;11.67;;
76566;SDS011;65428;53.194;6.132;2023-03-20T09:24:04;18.40;;;11.60;;
76566;SDS011;65428;53.194;6.132;2023-03-20T09:26:30;17.10;;;11.43;;
76566;SDS011;65428;53.194;6.132;2023-03-20T09:28:56;17.23;;;11.80;;
76566;SDS011;65428;53.194;6.132;2023-03-20T09:31:22;19.20;;;12.15;;
76566;SDS011;65428;53.194;6.132;2023-03-20T09:33:48;17.53;;;11.63;;
76566;SDS011;65428;53.194;6.132;2023-03-20T09:36:13;18.37;;;12.43;;
76566;SDS011;65428;53.194;6.132;2023-03-20T09:38:40;21.70;;;13.20;;
76566;SDS011;65428;53.194;6.132;2023-03-20T09:41:06;17.50;;;12.35;;
76566;SDS011;65428;53.194;6.132;2023-03-20T09:51:50;18.70;;;12.30;;
76566;SDS011;65428;53.194;6.132;2023-03-20T09:54:28;19.50;;;13.15;;
76566;SDS011;65428;53.194;6.132;2023-03-20T09:57:00;20.52;;;12.85;;
76566;SDS011;65428;53.194;6.132;2023-03-20T09:59:27;20.23;;;13.20;;
76566;SDS011;65428;53.194;6.132;2023-03-20T10:02:11;19.13;;;13.50;;
76566;SDS011;65428;53.194;6.132;2023-03-20T10:04:44;20.20;;;13.13;;
76566;SDS011;65428;53.194;6.132;2023-03-20T10:07:12;19.38;;;13.23;;
76566;SDS011;65428;53.194;6.132;2023-03-20T10:09:41;18.33;;;12.75;;
76566;SDS011;65428;53.194;6.132;2023-03-20T10:12:23;20.58;;;13.05;;
76566;SDS011;65428;53.194;6.132;2023-03-20T10:18:31;19.95;;;13.30;;
76566;SDS011;65428;53.194;6.132;2023-03-20T10:20:57;18.35;;;12.98;;
76566;SDS011;65428;53.194;6.132;2023-03-20T10:25:59;22.38;;;15.70;;
76566;SDS011;65428;53.194;6.132;2023-03-20T10:28:33;17.92;;;12.25;;
76566;SDS011;65428;53.194;6.132;2023-03-20T10:31:15;17.17;;;11.90;;
76566;SDS011;65428;53.194;6.132;2023-03-20T10:39:29;24.67;;;15.75;;
76566;SDS011;65428;53.194;6.132;2023-03-20T10:42:01;28.08;;;19.05;;
76566;SDS011;65428;53.194;6.132;2023-03-20T10:44:32;22.67;;;14.88;;
76566;SDS011;65428;53.194;6.132;2023-03-20T10:47:04;41.92;;;27.58;;
76566;SDS011;65428;53.194;6.132;2023-03-20T10:49:41;40.50;;;26.55;;
76566;SDS011;65428;53.194;6.132;2023-03-20T10:52:54;34.33;;;21.85;;
76566;SDS011;65428;53.194;6.132;2023-03-20T10:55:03;22.67;;;13.95;;
76566;SDS011;65428;53.194;6.132;2023-03-20T10:57:37;16.75;;;10.90;;
76566;SDS011;65428;53.194;6.132;2023-03-20T11:00:06;21.95;;;14.68;;
76566;SDS011;65428;53.194;6.132;2023-03-20T11:02:44;15.43;;;11.32;;
76566;SDS011;65428;53.194;6.132;2023-03-20T11:10:33;21.40;;;11.57;;
76566;SDS011;65428;53.194;6.132;2023-03-20T11:15:41;19.77;;;12.80;;
76566;SDS011;65428;53.194;6.132;2023-03-20T11:18:09;18.42;;;11.60;;
76566;SDS011;65428;53.194;6.132;2023-03-20T11:20:54;18.80;;;11.88;;
76566;SDS011;65428;53.194;6.132;2023-03-20T11:23:25;16.92;;;11.15;;
76566;SDS011;65428;53.194;6.132;2023-03-20T11:25:59;18.90;;;11.85;;
76566;SDS011;65428;53.194;6.132;2023-03-20T11:28:35;16.53;;;11.27;;
76566;SDS011;65428;53.194;6.132;2023-03-20T11:33:39;17.60;;;12.30;;
76566;SDS011;65428;53.194;6.132;2023-03-20T11:36:20;19.92;;;13.93;;
76566;SDS011;65428;53.194;6.132;2023-03-20T11:38:49;21.60;;;15.00;;
76566;SDS011;65428;53.194;6.132;2023-03-20T11:41:17;19.98;;;15.80;;
76566;SDS011;65428;53.194;6.132;2023-03-20T11:43:52;22.90;;;15.98;;
76566;SDS011;65428;53.194;6.132;2023-03-20T11:46:19;19.77;;;16.17;;
76566;SDS011;65428;53.194;6.132;2023-03-20T11:51:49;18.83;;;13.90;;
76566;SDS011;65428;53.194;6.132;2023-03-20T11:54:20;18.30;;;12.55;;
76566;SDS011;65428;53.194;6.132;2023-03-20T11:56:52;17.67;;;12.63;;
76566;SDS011;65428;53.194;6.132;2023-03-20T11:59:18;19.00;;;13.27;;
76566;SDS011;65428;53.194;6.132;2023-03-20T12:01:45;19.50;;;13.27;;
76566;SDS011;65428;53.194;6.132;2023-03-20T12:04:14;18.48;;;13.38;;
76566;SDS011;65428;53.194;6.132;2023-03-20T12:07:15;21.10;;;14.13;;
76566;SDS011;65428;53.194;6.132;2023-03-20T12:12:23;20.03;;;13.73;;
76566;SDS011;65428;53.194;6.132;2023-03-20T12:15:09;19.33;;;12.85;;
76566;SDS011;65428;53.194;6.132;2023-03-20T12:17:51;20.95;;;13.88;;
76566;SDS011;65428;53.194;6.132;2023-03-20T12:22:55;22.05;;;15.68;;
76566;SDS011;65428;53.194;6.132;2023-03-20T12:25:28;18.17;;;15.98;;
76566;SDS011;65428;53.194;6.132;2023-03-20T12:30:44;17.73;;;15.68;;
76566;SDS011;65428;53.194;6.132;2023-03-20T12:36:13;21.52;;;16.85;;
76566;SDS011;65428;53.194;6.132;2023-03-20T12:38:41;20.27;;;17.35;;
76566;SDS011;65428;53.194;6.132;2023-03-20T12:41:17;25.23;;;17.45;;
76566;SDS011;65428;53.194;6.132;2023-03-20T12:49:19;20.67;;;17.33;;
76566;SDS011;65428;53.194;6.132;2023-03-20T12:51:53;22.92;;;18.48;;
76566;SDS011;65428;53.194;6.132;2023-03-20T12:57:25;20.70;;;18.30;;
76566;SDS011;65428;53.194;6.132;2023-03-20T13:00:02;19.90;;;16.17;;
76566;SDS011;65428;53.194;6.132;2023-03-20T13:02:54;22.75;;;19.30;;
76566;SDS011;65428;53.194;6.132;2023-03-20T13:05:25;23.17;;;20.40;;
76566;SDS011;65428;53.194;6.132;2023-03-20T13:11:04;19.90;;;17.55;;
76566;SDS011;65428;53.194;6.132;2023-03-20T13:17:01;22.23;;;18.88;;
76566;SDS011;65428;53.194;6.132;2023-03-20T13:19:53;23.23;;;20.70;;
76566;SDS011;65428;53.194;6.132;2023-03-20T13:22:43;22.67;;;20.23;;
76566;SDS011;65428;53.194;6.132;2023-03-20T13:30:59;21.25;;;19.08;;
76566;SDS011;65428;53.194;6.132;2023-03-20T13:33:51;21.25;;;19.05;;
76566;SDS011;65428;53.194;6.132;2023-03-20T13:37:02;21.63;;;19.33;;
76566;SDS011;65428;53.194;6.132;2023-03-20T13:39:43;22.00;;;19.67;;
76566;SDS011;65428;53.194;6.132;2023-03-20T13:42:19;22.67;;;19.77;;
76566;SDS011;65428;53.194;6.132;2023-03-20T13:44:47;22.30;;;19.38;;
76566;SDS011;65428;53.194;6.132;2023-03-20T13:47:17;23.15;;;20.65;;
76566;SDS011;65428;53.194;6.132;2023-03-20T13:53:05;22.67;;;20.17;;
76566;SDS011;65428;53.194;6.132;2023-03-20T13:55:47;26.05;;;21.55;;
76566;SDS011;65428;53.194;6.132;2023-03-20T14:01:24;22.73;;;20.30;;
76566;SDS011;65428;53.194;6.132;2023-03-20T14:03:59;22.30;;;19.88;;
76566;SDS011;65428;53.194;6.132;2023-03-20T14:08:56;22.63;;;20.33;;
76566;SDS011;65428;53.194;6.132;2023-03-20T14:14:05;24.42;;;20.88;;
76566;SDS011;65428;53.194;6.132;2023-03-20T14:16:47;22.02;;;19.63;;
76566;SDS011;65428;53.194;6.132;2023-03-20T14:19:17;24.42;;;21.75;;
76566;SDS011;65428;53.194;6.132;2023-03-20T14:21:49;22.03;;;19.73;;
76566;SDS011;65428;53.194;6.132;2023-03-20T14:24:20;20.85;;;18.75;;
76566;SDS011;65428;53.194;6.132;2023-03-20T14:26:49;21.33;;;19.23;;
76566;SDS011;65428;53.194;6.132;2023-03-20T14:29:20;22.67;;;20.38;;
76566;SDS011;65428;53.194;6.132;2023-03-20T14:37:29;24.00;;;21.52;;
76566;SDS011;65428;53.194;6.132;2023-03-20T14:40:15;20.45;;;18.35;;
76566;SDS011;65428;53.194;6.132;2023-03-20T14:42:51;22.42;;;20.02;;
76566;SDS011;65428;53.194;6.132;2023-03-20T14:48:26;20.52;;;18.52;;
76566;SDS011;65428;53.194;6.132;2023-03-20T14:56:43;22.23;;;20.02;;
76566;SDS011;65428;53.194;6.132;2023-03-20T14:59:09;22.85;;;20.42;;
76566;SDS011;65428;53.194;6.132;2023-03-20T15:04:09;22.58;;;20.15;;
76566;SDS011;65428;53.194;6.132;2023-03-20T15:06:50;23.83;;;21.27;;
76566;SDS011;65428;53.194;6.132;2023-03-20T15:09:21;22.83;;;20.53;;
76566;SDS011;65428;53.194;6.132;2023-03-20T15:11:49;24.25;;;21.60;;
76566;SDS011;65428;53.194;6.132;2023-03-20T15:14:26;25.83;;;21.90;;
76566;SDS011;65428;53.194;6.132;2023-03-20T15:16:56;25.17;;;21.60;;
76566;SDS011;65428;53.194;6.132;2023-03-20T15:19:24;23.38;;;20.90;;
76566;SDS011;65428;53.194;6.132;2023-03-20T15:21:50;22.88;;;20.48;;
76566;SDS011;65428;53.194;6.132;2023-03-20T15:26:52;21.58;;;19.25;;
76566;SDS011;65428;53.194;6.132;2023-03-20T15:29:20;21.38;;;19.13;;
76566;SDS011;65428;53.194;6.132;2023-03-20T15:31:49;22.05;;;19.75;;
76566;SDS011;65428;53.194;6.132;2023-03-20T15:34:21;22.17;;;19.90;;
76566;SDS011;65428;53.194;6.132;2023-03-20T15:36:50;21.25;;;19.15;;
76566;SDS011;65428;53.194;6.132;2023-03-20T15:39:26;19.60;;;17.63;;
76566;SDS011;65428;53.194;6.132;2023-03-20T15:42:02;20.60;;;18.40;;
76566;SDS011;65428;53.194;6.132;2023-03-20T15:44:35;21.15;;;18.92;;
76566;SDS011;65428;53.194;6.132;2023-03-20T15:49:34;22.15;;;19.73;;
76566;SDS011;65428;53.194;6.132;2023-03-20T15:52:03;21.33;;;19.08;;
76566;SDS011;65428;53.194;6.132;2023-03-20T15:54:32;24.45;;;20.08;;
76566;SDS011;65428;53.194;6.132;2023-03-20T15:56:59;24.27;;;20.88;;
76566;SDS011;65428;53.194;6.132;2023-03-20T15:59:27;23.35;;;19.60;;
76566;SDS011;65428;53.194;6.132;2023-03-20T16:01:56;21.67;;;19.23;;
76566;SDS011;65428;53.194;6.132;2023-03-20T16:04:23;22.27;;;19.52;;
76566;SDS011;65428;53.194;6.132;2023-03-20T16:06:53;23.17;;;20.05;;
76566;SDS011;65428;53.194;6.132;2023-03-20T16:09:23;23.10;;;18.53;;
76566;SDS011;65428;53.194;6.132;2023-03-20T16:11:54;23.60;;;19.45;;
76566;SDS011;65428;53.194;6.132;2023-03-20T16:14:25;25.48;;;19.73;;
76566;SDS011;65428;53.194;6.132;2023-03-20T16:16:54;23.35;;;19.90;;
76566;SDS011;65428;53.194;6.132;2023-03-20T16:19:22;21.05;;;18.13;;
76566;SDS011;65428;53.194;6.132;2023-03-20T16:21:51;21.10;;;17.25;;
76566;SDS011;65428;53.194;6.132;2023-03-20T16:24:21;21.80;;;17.73;;
76566;SDS011;65428;53.194;6.132;2023-03-20T16:26:54;21.17;;;17.02;;
76566;SDS011;65428;53.194;6.132;2023-03-20T16:29:21;21.60;;;17.77;;
76566;SDS011;65428;53.194;6.132;2023-03-20T16:32:01;23.90;;;18.20;;
76566;SDS011;65428;53.194;6.132;2023-03-20T16:34:34;19.92;;;17.25;;
76566;SDS011;65428;53.194;6.132;2023-03-20T16:37:06;25.52;;;20.05;;
76566;SDS011;65428;53.194;6.132;2023-03-20T16:39:44;22.07;;;18.13;;
76566;SDS011;65428;53.194;6.132;2023-03-20T16:42:17;23.97;;;18.87;;
76566;SDS011;65428;53.194;6.132;2023-03-20T16:44:55;22.55;;;18.98;;
76566;SDS011;65428;53.194;6.132;2023-03-20T16:47:23;22.90;;;18.80;;
76566;SDS011;65428;53.194;6.132;2023-03-20T16:50:04;24.38;;;18.40;;
76566;SDS011;65428;53.194;6.132;2023-03-20T16:52:43;20.42;;;16.85;;
76566;SDS011;65428;53.194;6.132;2023-03-20T16:55:15;24.75;;;18.92;;
76566;SDS011;65428;53.194;6.132;2023-03-20T16:57:46;22.45;;;18.40;;